^^
Station Historical Data
Daily Summary for September 14, 2017 Units:  Both    English   Metric
« Previous Day
Next Day »
Daily Weekly Monthly Yearly Custom
  High: Low: Average:
Temperature: TemperatureF °F /  -17.8 °C 59.2 °F /  15.1 °C 73.1 °F /  22.8 °C
Dew Point: DewpointF °F /  -17.8 °C 21.6 °F /  -5.8 °C 25.7 °F /  -3.5 °C
Humidity: Humidity% 10% 18%
Wind Speed: WindSpeedMPHmph /  0km/h - 1.3mph /  2.1km/h
Wind Gust: WindSpeedGustMPHmph /  0km/h - -
Wind- - South
Pressure: PressureIn in /  0 hPa 29.73 in /  1006.7 hPa -
Precipitation: 0.00 in /  0 mm    
Historical Graphs
 
 
Tabular Data for September 14, 2017
Time Temperature Dew Point Pressure Wind Wind Speed Wind Gust Humidity Rainfall Rate (Hourly) solar Conditions
TemperatureF °F /  -17.8 °C DewpointF °F /  -17.8 °C PressureInin /  0hPa Calm     Humidity% HourlyPrecipInin /  0mm SolarRadiationWatts/m^2 W/m2 Conditions
00:04 63.7 °F /  17.6 °C 21.9 °F /  -5.6 °C 29.87in /  1011.4hPa SE 0.9mph /  1.4km/h 4.0mph /  6.4km/h 20% 0.00in /  0mm 0.0 W/m2
00:10 63.7 °F /  17.6 °C 23.0 °F /  -5 °C 29.87in /  1011.4hPa Calm     21% 0.00in /  0mm 0.0 W/m2
00:16 63.3 °F /  17.4 °C 23.9 °F /  -4.5 °C 29.87in /  1011.4hPa Calm     22% 0.00in /  0mm 0.0 W/m2
00:22 63.0 °F /  17.2 °C 22.5 °F /  -5.3 °C 29.87in /  1011.4hPa Calm   1.0mph /  1.6km/h 21% 0.00in /  0mm 0.0 W/m2
00:28 62.8 °F /  17.1 °C 23.4 °F /  -4.8 °C 29.87in /  1011.4hPa Calm   4.0mph /  6.4km/h 22% 0.00in /  0mm 0.0 W/m2
00:34 62.8 °F /  17.1 °C 23.4 °F /  -4.8 °C 29.87in /  1011.4hPa Calm   1.0mph /  1.6km/h 22% 0.00in /  0mm 0.0 W/m2
00:40 62.8 °F /  17.1 °C 23.4 °F /  -4.8 °C 29.87in /  1011.4hPa Calm     22% 0.00in /  0mm 0.0 W/m2
00:46 62.8 °F /  17.1 °C 23.4 °F /  -4.8 °C 29.87in /  1011.4hPa Calm     22% 0.00in /  0mm 0.0 W/m2
00:52 62.8 °F /  17.1 °C 23.4 °F /  -4.8 °C 29.87in /  1011.4hPa Calm   1.0mph /  1.6km/h 22% 0.00in /  0mm 0.0 W/m2
00:58 62.4 °F /  16.9 °C 23.0 °F /  -5 °C 29.86in /  1011.1hPa Calm   1.0mph /  1.6km/h 22% 0.00in /  0mm 0.0 W/m2
01:04 62.4 °F /  16.9 °C 23.0 °F /  -5 °C 29.86in /  1011.1hPa Calm     22% 0.00in /  0mm 0.0 W/m2
01:10 62.1 °F /  16.7 °C 23.9 °F /  -4.5 °C 29.86in /  1011.1hPa Calm     23% 0.00in /  0mm 0.0 W/m2
01:16 62.1 °F /  16.7 °C 23.9 °F /  -4.5 °C 29.86in /  1011.1hPa Calm     23% 0.00in /  0mm 0.0 W/m2
01:23 61.9 °F /  16.6 °C 23.7 °F /  -4.6 °C 29.86in /  1011.1hPa Calm     23% 0.00in /  0mm 0.0 W/m2
01:29 61.7 °F /  16.5 °C 22.5 °F /  -5.3 °C 29.85in /  1010.7hPa Calm   1.0mph /  1.6km/h 22% 0.00in /  0mm 0.0 W/m2
01:35 61.5 °F /  16.4 °C 22.3 °F /  -5.4 °C 29.85in /  1010.7hPa ESE 0.9mph /  1.4km/h 1.0mph /  1.6km/h 22% 0.00in /  0mm 0.0 W/m2
01:41 61.5 °F /  16.4 °C 22.3 °F /  -5.4 °C 29.85in /  1010.7hPa Calm   3.0mph /  4.8km/h 22% 0.00in /  0mm 0.0 W/m2
01:47 61.5 °F /  16.4 °C 23.4 °F /  -4.8 °C 29.85in /  1010.7hPa Calm     23% 0.00in /  0mm 0.0 W/m2
01:53 61.3 °F /  16.3 °C 23.2 °F /  -4.9 °C 29.85in /  1010.7hPa East 2.0mph /  3.2km/h 3.0mph /  4.8km/h 23% 0.00in /  0mm 0.0 W/m2
02:06 61.2 °F /  16.2 °C 23.0 °F /  -5 °C 29.85in /  1010.7hPa Calm     23% 0.00in /  0mm 0.0 W/m2
02:12 61.2 °F /  16.2 °C 23.0 °F /  -5 °C 29.84in /  1010.4hPa Calm     23% 0.00in /  0mm 0.0 W/m2
02:18 61.0 °F /  16.1 °C 22.8 °F /  -5.1 °C 29.84in /  1010.4hPa Calm   3.0mph /  4.8km/h 23% 0.00in /  0mm 0.0 W/m2
02:24 61.0 °F /  16.1 °C 22.8 °F /  -5.1 °C 29.84in /  1010.4hPa Calm   2.0mph /  3.2km/h 23% 0.00in /  0mm 0.0 W/m2
02:30 60.8 °F /  16 °C 22.8 °F /  -5.1 °C 29.84in /  1010.4hPa Calm   1.0mph /  1.6km/h 23% 0.00in /  0mm 0.0 W/m2
02:36 60.6 °F /  15.9 °C 22.6 °F /  -5.2 °C 29.84in /  1010.4hPa Calm   1.0mph /  1.6km/h 23% 0.00in /  0mm 0.0 W/m2
02:43 60.6 °F /  15.9 °C 22.6 °F /  -5.2 °C 29.84in /  1010.4hPa Calm   1.0mph /  1.6km/h 23% 0.00in /  0mm 0.0 W/m2
02:49 60.6 °F /  15.9 °C 22.6 °F /  -5.2 °C 29.84in /  1010.4hPa Calm   1.0mph /  1.6km/h 23% 0.00in /  0mm 0.0 W/m2
02:55 60.4 °F /  15.8 °C 22.5 °F /  -5.3 °C 29.83in /  1010hPa ENE 0.9mph /  1.4km/h 2.0mph /  3.2km/h 23% 0.00in /  0mm 0.0 W/m2
03:01 60.3 °F /  15.7 °C 22.3 °F /  -5.4 °C 29.83in /  1010hPa ESE 0.9mph /  1.4km/h 3.0mph /  4.8km/h 23% 0.00in /  0mm 0.0 W/m2
03:07 60.4 °F /  15.8 °C 22.5 °F /  -5.3 °C 29.83in /  1010hPa Calm     23% 0.00in /  0mm 0.0 W/m2
03:13 60.4 °F /  15.8 °C 22.5 °F /  -5.3 °C 29.83in /  1010hPa Calm   1.0mph /  1.6km/h 23% 0.00in /  0mm 0.0 W/m2
03:19 60.4 °F /  15.8 °C 23.5 °F /  -4.7 °C 29.83in /  1010hPa Calm   2.0mph /  3.2km/h 24% 0.00in /  0mm 0.0 W/m2
03:25 60.4 °F /  15.8 °C 22.5 °F /  -5.3 °C 29.83in /  1010hPa Calm   1.0mph /  1.6km/h 23% 0.00in /  0mm 0.0 W/m2
03:31 60.3 °F /  15.7 °C 22.3 °F /  -5.4 °C 29.83in /  1010hPa ESE 0.9mph /  1.4km/h 1.0mph /  1.6km/h 23% 0.00in /  0mm 0.0 W/m2
03:37 60.3 °F /  15.7 °C 22.3 °F /  -5.4 °C 29.83in /  1010hPa Calm   1.0mph /  1.6km/h 23% 0.00in /  0mm 0.0 W/m2
03:43 60.3 °F /  15.7 °C 23.4 °F /  -4.8 °C 29.83in /  1010hPa Calm   1.0mph /  1.6km/h 24% 0.00in /  0mm 0.0 W/m2
03:50 60.3 °F /  15.7 °C 23.4 °F /  -4.8 °C 29.83in /  1010hPa Calm     24% 0.00in /  0mm 0.0 W/m2
03:56 60.1 °F /  15.6 °C 23.2 °F /  -4.9 °C 29.83in /  1010hPa Calm   3.0mph /  4.8km/h 24% 0.00in /  0mm 0.0 W/m2
04:02 60.1 °F /  15.6 °C 23.2 °F /  -4.9 °C 29.83in /  1010hPa Calm   1.0mph /  1.6km/h 24% 0.00in /  0mm 0.0 W/m2
04:08 59.9 °F /  15.5 °C 23.0 °F /  -5 °C 29.83in /  1010hPa Calm   4.0mph /  6.4km/h 24% 0.00in /  0mm 0.0 W/m2
04:12 59.9 °F /  15.5 °C 23.0 °F /  -5 °C 29.83in /  1010hPa Calm   1.0mph /  1.6km/h 24% 0.00in /  0mm 0.0 W/m2
04:18 59.7 °F /  15.4 °C 22.8 °F /  -5.1 °C 29.83in /  1010hPa ESE 0.9mph /  1.4km/h 2.0mph /  3.2km/h 24% 0.00in /  0mm 0.0 W/m2
04:24 59.7 °F /  15.4 °C 22.8 °F /  -5.1 °C 29.82in /  1009.7hPa Calm   2.0mph /  3.2km/h 24% 0.00in /  0mm 0.0 W/m2
04:30 59.7 °F /  15.4 °C 22.8 °F /  -5.1 °C 29.83in /  1010hPa Calm   3.0mph /  4.8km/h 24% 0.00in /  0mm 0.0 W/m2
04:36 59.7 °F /  15.4 °C 22.8 °F /  -5.1 °C 29.83in /  1010hPa Calm   7.0mph /  11.3km/h 24% 0.00in /  0mm 0.0 W/m2
04:43 60.1 °F /  15.6 °C 23.2 °F /  -4.9 °C 29.83in /  1010hPa Calm   4.0mph /  6.4km/h 24% 0.00in /  0mm 0.0 W/m2
04:47 60.1 °F /  15.6 °C 23.2 °F /  -4.9 °C 29.83in /  1010hPa NE 0.9mph /  1.4km/h 4.0mph /  6.4km/h 24% 0.00in /  0mm 0.0 W/m2
04:53 60.3 °F /  15.7 °C 23.4 °F /  -4.8 °C 29.83in /  1010hPa ENE 0.9mph /  1.4km/h 2.0mph /  3.2km/h 24% 0.00in /  0mm 0.0 W/m2
04:59 60.4 °F /  15.8 °C 22.5 °F /  -5.3 °C 29.83in /  1010hPa Calm   3.0mph /  4.8km/h 23% 0.00in /  0mm 0.0 W/m2
05:05 60.4 °F /  15.8 °C 22.5 °F /  -5.3 °C 29.83in /  1010hPa NE 2.0mph /  3.2km/h 3.0mph /  4.8km/h 23% 0.00in /  0mm 0.0 W/m2
05:22 60.3 °F /  15.7 °C 22.3 °F /  -5.4 °C 29.84in /  1010.4hPa Calm   2.0mph /  3.2km/h 23% 0.00in /  0mm 0.0 W/m2
05:28 60.3 °F /  15.7 °C 22.3 °F /  -5.4 °C 29.84in /  1010.4hPa Calm   1.0mph /  1.6km/h 23% 0.00in /  0mm 0.0 W/m2
05:38 60.1 °F /  15.6 °C 23.2 °F /  -4.9 °C 29.84in /  1010.4hPa ESE 2.0mph /  3.2km/h 3.0mph /  4.8km/h 24% 0.00in /  0mm 0.0 W/m2
05:42 60.1 °F /  15.6 °C 23.2 °F /  -4.9 °C 29.84in /  1010.4hPa Calm   2.0mph /  3.2km/h 24% 0.00in /  0mm 0.0 W/m2
05:46 60.1 °F /  15.6 °C 22.1 °F /  -5.5 °C 29.84in /  1010.4hPa Calm   4.0mph /  6.4km/h 23% 0.00in /  0mm 0.0 W/m2
05:52 60.1 °F /  15.6 °C 22.1 °F /  -5.5 °C 29.85in /  1010.7hPa Calm   2.0mph /  3.2km/h 23% 0.00in /  0mm 0.0 W/m2
05:58 60.1 °F /  15.6 °C 22.1 °F /  -5.5 °C 29.85in /  1010.7hPa Calm   2.0mph /  3.2km/h 23% 0.00in /  0mm 0.0 W/m2
06:04 59.9 °F /  15.5 °C 21.9 °F /  -5.6 °C 29.85in /  1010.7hPa Calm   1.0mph /  1.6km/h 23% 0.00in /  0mm 0.0 W/m2
06:10 59.7 °F /  15.4 °C 21.9 °F /  -5.6 °C 29.85in /  1010.7hPa Calm     23% 0.00in /  0mm 0.0 W/m2
06:17 59.5 °F /  15.3 °C 21.7 °F /  -5.7 °C 29.85in /  1010.7hPa Calm   1.0mph /  1.6km/h 23% 0.00in /  0mm 0.0 W/m2
06:23 59.4 °F /  15.2 °C 21.6 °F /  -5.8 °C 29.85in /  1010.7hPa Calm   3.0mph /  4.8km/h 23% 0.00in /  0mm 0.0 W/m2
06:29 59.5 °F /  15.3 °C 21.7 °F /  -5.7 °C 29.85in /  1010.7hPa SE 2.9mph /  4.7km/h 3.0mph /  4.8km/h 23% 0.00in /  0mm 0.0 W/m2
06:35 59.5 °F /  15.3 °C 22.6 °F /  -5.2 °C 29.86in /  1011.1hPa Calm   1.0mph /  1.6km/h 24% 0.00in /  0mm 0.0 W/m2
06:39 59.4 °F /  15.2 °C 22.6 °F /  -5.2 °C 29.86in /  1011.1hPa ENE 2.9mph /  4.7km/h 3.0mph /  4.8km/h 24% 0.00in /  0mm 0.0 W/m2
06:45 59.4 °F /  15.2 °C 22.6 °F /  -5.2 °C 29.86in /  1011.1hPa Calm   3.0mph /  4.8km/h 24% 0.00in /  0mm 0.0 W/m2
06:51 59.4 °F /  15.2 °C 22.6 °F /  -5.2 °C 29.86in /  1011.1hPa Calm   1.0mph /  1.6km/h 24% 0.00in /  0mm 0.0 W/m2
06:57 59.2 °F /  15.1 °C 22.5 °F /  -5.3 °C 29.86in /  1011.1hPa Calm   2.0mph /  3.2km/h 24% 0.00in /  0mm 7.0 W/m2
07:04 59.2 °F /  15.1 °C 23.4 °F /  -4.8 °C 29.87in /  1011.4hPa Calm   2.0mph /  3.2km/h 25% 0.00in /  0mm 11.0 W/m2
07:10 59.2 °F /  15.1 °C 22.5 °F /  -5.3 °C 29.87in /  1011.4hPa Calm     24% 0.00in /  0mm 16.0 W/m2
07:16 59.2 °F /  15.1 °C 22.5 °F /  -5.3 °C 29.88in /  1011.7hPa Calm     24% 0.00in /  0mm 21.0 W/m2
07:22 59.2 °F /  15.1 °C 23.4 °F /  -4.8 °C 29.88in /  1011.7hPa Calm     25% 0.00in /  0mm 26.0 W/m2
07:28 59.2 °F /  15.1 °C 23.4 °F /  -4.8 °C 29.88in /  1011.7hPa Calm     25% 0.00in /  0mm 32.0 W/m2
07:34 59.4 °F /  15.2 °C 24.4 °F /  -4.2 °C 29.88in /  1011.7hPa Calm     26% 0.00in /  0mm 35.0 W/m2
07:41 59.4 °F /  15.2 °C 25.3 °F /  -3.7 °C 29.88in /  1011.7hPa Calm     27% 0.00in /  0mm 40.0 W/m2
07:47 59.4 °F /  15.2 °C 25.3 °F /  -3.7 °C 29.88in /  1011.7hPa Calm     27% 0.00in /  0mm 44.0 W/m2
07:49 59.4 °F /  15.2 °C 25.3 °F /  -3.7 °C 29.88in /  1011.7hPa Calm     27% 0.00in /  0mm 46.0 W/m2
07:55 59.7 °F /  15.4 °C 25.7 °F /  -3.5 °C 29.89in /  1012.1hPa Calm     27% 0.00in /  0mm 49.0 W/m2
08:01 60.1 °F /  15.6 °C 25.2 °F /  -3.8 °C 29.88in /  1011.7hPa Calm     26% 0.00in /  0mm 54.0 W/m2
08:07 60.6 °F /  15.9 °C 25.5 °F /  -3.6 °C 29.89in /  1012.1hPa Calm     26% 0.00in /  0mm 58.0 W/m2
08:13 61.2 °F /  16.2 °C 27.0 °F /  -2.8 °C 29.89in /  1012.1hPa Calm     27% 0.00in /  0mm 62.0 W/m2
08:19 61.5 °F /  16.4 °C 27.1 °F /  -2.7 °C 29.89in /  1012.1hPa Calm     27% 0.00in /  0mm 65.0 W/m2
08:25 61.9 °F /  16.6 °C 26.6 °F /  -3 °C 29.89in /  1012.1hPa Calm     26% 0.00in /  0mm 69.0 W/m2
08:32 62.4 °F /  16.9 °C 27.1 °F /  -2.7 °C 29.89in /  1012.1hPa Calm     26% 0.00in /  0mm 72.0 W/m2
08:38 63.3 °F /  17.4 °C 27.0 °F /  -2.8 °C 29.89in /  1012.1hPa Calm     25% 0.00in /  0mm 76.0 W/m2
08:44 64.8 °F /  18.2 °C 27.1 °F /  -2.7 °C 29.90in /  1012.4hPa Calm   2.0mph /  3.2km/h 24% 0.00in /  0mm 77.0 W/m2
08:50 66.6 °F /  19.2 °C 26.6 °F /  -3 °C 29.90in /  1012.4hPa NNE 2.0mph /  3.2km/h 3.0mph /  4.8km/h 22% 0.00in /  0mm 81.0 W/m2
08:56 68.5 °F /  20.3 °C 25.9 °F /  -3.4 °C 29.90in /  1012.4hPa Calm   7.0mph /  11.3km/h 20% 0.00in /  0mm 84.0 W/m2
09:02 70.5 °F /  21.4 °C 26.2 °F /  -3.2 °C 29.90in /  1012.4hPa SE 2.0mph /  3.2km/h 5.0mph /  8km/h 19% 0.00in /  0mm 88.0 W/m2
09:08 71.8 °F /  22.1 °C 27.3 °F /  -2.6 °C 29.89in /  1012.1hPa Calm   6.0mph /  9.7km/h 19% 0.00in /  0mm 91.0 W/m2
09:14 72.9 °F /  22.7 °C 27.0 °F /  -2.8 °C 29.89in /  1012.1hPa NNE 4.0mph /  6.4km/h 7.0mph /  11.3km/h 18% 0.00in /  0mm 95.0 W/m2
09:21 73.8 °F /  23.2 °C 27.7 °F /  -2.4 °C 29.89in /  1012.1hPa NE 2.0mph /  3.2km/h 7.0mph /  11.3km/h 18% 0.00in /  0mm 98.0 W/m2
09:27 74.5 °F /  23.6 °C 28.2 °F /  -2.1 °C 29.89in /  1012.1hPa ENE 0.9mph /  1.4km/h 10.0mph /  16.1km/h 18% 0.00in /  0mm 102.0 W/m2
09:33 74.8 °F /  23.8 °C 28.4 °F /  -2 °C 29.89in /  1012.1hPa Calm   5.0mph /  8km/h 18% 0.00in /  0mm 107.0 W/m2
09:39 75.4 °F /  24.1 °C 28.9 °F /  -1.7 °C 29.89in /  1012.1hPa NE 2.0mph /  3.2km/h 7.0mph /  11.3km/h 18% 0.00in /  0mm 480.0 W/m2
09:45 75.9 °F /  24.4 °C 28.0 °F /  -2.2 °C 29.89in /  1012.1hPa NE 2.9mph /  4.7km/h 7.0mph /  11.3km/h 17% 0.00in /  0mm 499.0 W/m2
09:51 76.6 °F /  24.8 °C 28.6 °F /  -1.9 °C 29.89in /  1012.1hPa ESE 0.9mph /  1.4km/h 7.0mph /  11.3km/h 17% 0.00in /  0mm 524.0 W/m2
09:57 77.5 °F /  25.3 °C 27.9 °F /  -2.3 °C 29.88in /  1011.7hPa ESE 2.0mph /  3.2km/h 4.0mph /  6.4km/h 16% 0.00in /  0mm 540.0 W/m2
10:04 78.3 °F /  25.7 °C 28.4 °F /  -2 °C 29.88in /  1011.7hPa NE 2.9mph /  4.7km/h 6.0mph /  9.7km/h 16% 0.00in /  0mm 557.0 W/m2
10:10 79.0 °F /  26.1 °C 28.9 °F /  -1.7 °C 29.88in /  1011.7hPa NW 6.0mph /  9.7km/h 9.0mph /  14.5km/h 16% 0.00in /  0mm 573.0 W/m2
10:16 79.7 °F /  26.5 °C 29.5 °F /  -1.4 °C 29.88in /  1011.7hPa North 4.9mph /  7.9km/h 7.0mph /  11.3km/h 16% 0.00in /  0mm 591.0 W/m2
10:22 80.4 °F /  26.9 °C 28.6 °F /  -1.9 °C 29.88in /  1011.7hPa NNE 2.0mph /  3.2km/h 5.0mph /  8km/h 15% 0.00in /  0mm 603.0 W/m2
10:28 81.1 °F /  27.3 °C 29.1 °F /  -1.6 °C 29.88in /  1011.7hPa NE 2.0mph /  3.2km/h 7.0mph /  11.3km/h 15% 0.00in /  0mm 621.0 W/m2
10:34 81.5 °F /  27.5 °C 29.5 °F /  -1.4 °C 29.88in /  1011.7hPa NNW 0.9mph /  1.4km/h 6.0mph /  9.7km/h 15% 0.00in /  0mm 635.0 W/m2
10:40 81.9 °F /  27.7 °C 28.0 °F /  -2.2 °C 29.87in /  1011.4hPa NW 4.9mph /  7.9km/h 5.0mph /  8km/h 14% 0.00in /  0mm 650.0 W/m2
10:46 82.0 °F /  27.8 °C 28.2 °F /  -2.1 °C 29.87in /  1011.4hPa Calm   3.0mph /  4.8km/h 14% 0.00in /  0mm 661.0 W/m2
10:52 82.6 °F /  28.1 °C 28.6 °F /  -1.9 °C 29.87in /  1011.4hPa NNW 4.0mph /  6.4km/h 6.0mph /  9.7km/h 14% 0.00in /  0mm 675.0 W/m2
10:59 82.8 °F /  28.2 °C 28.8 °F /  -1.8 °C 29.87in /  1011.4hPa WNW 0.9mph /  1.4km/h 6.0mph /  9.7km/h 14% 0.00in /  0mm 691.0 W/m2
11:05 83.1 °F /  28.4 °C 28.9 °F /  -1.7 °C 29.87in /  1011.4hPa ENE 0.9mph /  1.4km/h 6.0mph /  9.7km/h 14% 0.00in /  0mm 698.0 W/m2
11:11 83.7 °F /  28.7 °C 29.5 °F /  -1.4 °C 29.86in /  1011.1hPa NE 4.9mph /  7.9km/h 8.0mph /  12.9km/h 14% 0.00in /  0mm 708.0 W/m2
11:17 84.0 °F /  28.9 °C 29.7 °F /  -1.3 °C 29.86in /  1011.1hPa NNE 6.9mph /  11.1km/h 9.0mph /  14.5km/h 14% 0.00in /  0mm 719.0 W/m2
11:23 84.6 °F /  29.2 °C 28.4 °F /  -2 °C 29.85in /  1010.7hPa NE 2.9mph /  4.7km/h 6.0mph /  9.7km/h 13% 0.00in /  0mm 728.0 W/m2
11:29 84.9 °F /  29.4 °C 28.6 °F /  -1.9 °C 29.85in /  1010.7hPa NNW 2.0mph /  3.2km/h 11.0mph /  17.7km/h 13% 0.00in /  0mm 738.0 W/m2
11:35 85.3 °F /  29.6 °C 28.9 °F /  -1.7 °C 29.85in /  1010.7hPa NW 4.0mph /  6.4km/h 4.0mph /  6.4km/h 13% 0.00in /  0mm 744.0 W/m2
11:37 85.5 °F /  29.7 °C 28.9 °F /  -1.7 °C 29.85in /  1010.7hPa NNE 8.9mph /  14.3km/h 9.0mph /  14.5km/h 13% 0.00in /  0mm 747.0 W/m2
11:43 85.6 °F /  29.8 °C 29.1 °F /  -1.6 °C 29.85in /  1010.7hPa NNE 4.9mph /  7.9km/h 11.0mph /  17.7km/h 13% 0.00in /  0mm 752.0 W/m2
11:50 85.8 °F /  29.9 °C 29.3 °F /  -1.5 °C 29.84in /  1010.4hPa North 2.0mph /  3.2km/h 7.0mph /  11.3km/h 13% 0.00in /  0mm 759.0 W/m2
11:56 86.0 °F /  30 °C 29.5 °F /  -1.4 °C 29.84in /  1010.4hPa North 6.0mph /  9.7km/h 10.0mph /  16.1km/h 13% 0.00in /  0mm 772.0 W/m2
12:02 86.2 °F /  30.1 °C 27.7 °F /  -2.4 °C 29.83in /  1010hPa North 4.9mph /  7.9km/h 7.0mph /  11.3km/h 12% 0.00in /  0mm 777.0 W/m2
12:08 86.5 °F /  30.3 °C 27.9 °F /  -2.3 °C 29.83in /  1010hPa NNE 4.9mph /  7.9km/h 6.0mph /  9.7km/h 12% 0.00in /  0mm 779.0 W/m2
12:14 86.7 °F /  30.4 °C 28.0 °F /  -2.2 °C 29.82in /  1009.7hPa WNW 2.9mph /  4.7km/h 12.0mph /  19.3km/h 12% 0.00in /  0mm 784.0 W/m2
12:20 87.1 °F /  30.6 °C 28.4 °F /  -2 °C 29.82in /  1009.7hPa NNW 6.0mph /  9.7km/h 12.0mph /  19.3km/h 12% 0.00in /  0mm 789.0 W/m2
12:26 87.3 °F /  30.7 °C 28.4 °F /  -2 °C 29.82in /  1009.7hPa NE 2.0mph /  3.2km/h 10.0mph /  16.1km/h 12% 0.00in /  0mm 789.0 W/m2
12:33 87.4 °F /  30.8 °C 28.6 °F /  -1.9 °C 29.81in /  1009.4hPa NW 8.1mph /  13km/h 12.0mph /  19.3km/h 12% 0.00in /  0mm 793.0 W/m2
12:39 87.4 °F /  30.8 °C 28.6 °F /  -1.9 °C 29.81in /  1009.4hPa North 2.9mph /  4.7km/h 6.0mph /  9.7km/h 12% 0.00in /  0mm 796.0 W/m2
12:45 87.8 °F /  31 °C 28.9 °F /  -1.7 °C 29.80in /  1009hPa East 4.0mph /  6.4km/h 6.0mph /  9.7km/h 12% 0.00in /  0mm 796.0 W/m2
12:51 88.2 °F /  31.2 °C 27.0 °F /  -2.8 °C 29.80in /  1009hPa NW 6.0mph /  9.7km/h 8.0mph /  12.9km/h 11% 0.00in /  0mm 795.0 W/m2
12:57 88.3 °F /  31.3 °C 27.1 °F /  -2.7 °C 29.80in /  1009hPa NW 4.9mph /  7.9km/h 7.0mph /  11.3km/h 11% 0.00in /  0mm 793.0 W/m2
13:03 88.5 °F /  31.4 °C 29.5 °F /  -1.4 °C 29.79in /  1008.7hPa West 2.0mph /  3.2km/h 4.0mph /  6.4km/h 12% 0.00in /  0mm 791.0 W/m2
13:09 88.9 °F /  31.6 °C 27.5 °F /  -2.5 °C 29.79in /  1008.7hPa NNW 2.0mph /  3.2km/h 4.0mph /  6.4km/h 11% 0.00in /  0mm 789.0 W/m2
13:16 89.1 °F /  31.7 °C 27.7 °F /  -2.4 °C 29.79in /  1008.7hPa NNE 6.0mph /  9.7km/h 8.0mph /  12.9km/h 11% 0.00in /  0mm 784.0 W/m2
13:22 89.2 °F /  31.8 °C 27.9 °F /  -2.3 °C 29.79in /  1008.7hPa NNW 4.0mph /  6.4km/h 10.0mph /  16.1km/h 11% 0.00in /  0mm 784.0 W/m2
13:28 89.1 °F /  31.7 °C 27.7 °F /  -2.4 °C 29.78in /  1008.4hPa WNW 2.0mph /  3.2km/h 2.0mph /  3.2km/h 11% 0.00in /  0mm 772.0 W/m2
13:34 89.2 °F /  31.8 °C 27.9 °F /  -2.3 °C 29.78in /  1008.4hPa WNW 2.0mph /  3.2km/h 13.0mph /  20.9km/h 11% 0.00in /  0mm 773.0 W/m2
13:40 89.2 °F /  31.8 °C 27.9 °F /  -2.3 °C 29.78in /  1008.4hPa NNW 4.9mph /  7.9km/h 5.0mph /  8km/h 11% 0.00in /  0mm 758.0 W/m2
13:46 89.4 °F /  31.9 °C 28.0 °F /  -2.2 °C 29.77in /  1008hPa WSW 0.9mph /  1.4km/h 5.0mph /  8km/h 11% 0.00in /  0mm 756.0 W/m2
13:52 89.4 °F /  31.9 °C 25.7 °F /  -3.5 °C 29.77in /  1008hPa NE 0.9mph /  1.4km/h 10.0mph /  16.1km/h 10% 0.00in /  0mm 740.0 W/m2
13:58 89.2 °F /  31.8 °C 27.9 °F /  -2.3 °C 29.77in /  1008hPa NNW 2.9mph /  4.7km/h 8.0mph /  12.9km/h 11% 0.00in /  0mm 735.0 W/m2
14:05 89.2 °F /  31.8 °C 27.9 °F /  -2.3 °C 29.77in /  1008hPa North 6.9mph /  11.1km/h 12.0mph /  19.3km/h 11% 0.00in /  0mm 715.0 W/m2
14:11 89.4 °F /  31.9 °C 25.7 °F /  -3.5 °C 29.76in /  1007.7hPa WSW 2.9mph /  4.7km/h 5.0mph /  8km/h 10% 0.00in /  0mm 715.0 W/m2
14:17 89.2 °F /  31.8 °C 27.9 °F /  -2.3 °C 29.75in /  1007.3hPa NW 0.9mph /  1.4km/h 6.0mph /  9.7km/h 11% 0.00in /  0mm 705.0 W/m2
14:23 89.4 °F /  31.9 °C 28.0 °F /  -2.2 °C 29.75in /  1007.3hPa NE 4.9mph /  7.9km/h 8.0mph /  12.9km/h 11% 0.00in /  0mm 684.0 W/m2
14:29 90.0 °F /  32.2 °C 26.1 °F /  -3.3 °C 29.75in /  1007.3hPa NNW 2.9mph /  4.7km/h 7.0mph /  11.3km/h 10% 0.00in /  0mm 682.0 W/m2
14:35 90.1 °F /  32.3 °C 26.2 °F /  -3.2 °C 29.75in /  1007.3hPa NNE 2.9mph /  4.7km/h 7.0mph /  11.3km/h 10% 0.00in /  0mm 659.0 W/m2
14:41 90.0 °F /  32.2 °C 26.1 °F /  -3.3 °C 29.74in /  1007hPa NW 4.0mph /  6.4km/h 12.0mph /  19.3km/h 10% 0.00in /  0mm 656.0 W/m2
14:48 90.1 °F /  32.3 °C 26.2 °F /  -3.2 °C 29.74in /  1007hPa NNW 4.0mph /  6.4km/h 7.0mph /  11.3km/h 10% 0.00in /  0mm 643.0 W/m2
14:54 90.1 °F /  32.3 °C 26.2 °F /  -3.2 °C 29.74in /  1007hPa NW 2.9mph /  4.7km/h 9.0mph /  14.5km/h 10% 0.00in /  0mm 613.0 W/m2
15:00 90.0 °F /  32.2 °C 26.1 °F /  -3.3 °C 29.74in /  1007hPa SE 2.9mph /  4.7km/h 7.0mph /  11.3km/h 10% 0.00in /  0mm 605.0 W/m2
15:06 89.8 °F /  32.1 °C 25.9 °F /  -3.4 °C 29.74in /  1007hPa NNW 4.9mph /  7.9km/h 6.0mph /  9.7km/h 10% 0.00in /  0mm 594.0 W/m2
15:12 90.0 °F /  32.2 °C 26.1 °F /  -3.3 °C 29.73in /  1006.7hPa NNW 2.9mph /  4.7km/h 10.0mph /  16.1km/h 10% 0.00in /  0mm 582.0 W/m2
15:18 90.3 °F /  32.4 °C 26.4 °F /  -3.1 °C 29.73in /  1006.7hPa NNW 4.9mph /  7.9km/h 8.0mph /  12.9km/h 10% 0.00in /  0mm 564.0 W/m2
15:24 90.1 °F /  32.3 °C 26.2 °F /  -3.2 °C 29.73in /  1006.7hPa WNW 2.0mph /  3.2km/h 7.0mph /  11.3km/h 10% 0.00in /  0mm 550.0 W/m2
15:30 90.0 °F /  32.2 °C 26.1 °F /  -3.3 °C 29.73in /  1006.7hPa WNW 2.9mph /  4.7km/h 9.0mph /  14.5km/h 10% 0.00in /  0mm 524.0 W/m2
15:37 89.8 °F /  32.1 °C 25.9 °F /  -3.4 °C 29.73in /  1006.7hPa West 2.0mph /  3.2km/h 7.0mph /  11.3km/h 10% 0.00in /  0mm 506.0 W/m2
15:43 89.8 °F /  32.1 °C 25.9 °F /  -3.4 °C 29.73in /  1006.7hPa WNW 4.9mph /  7.9km/h 11.0mph /  17.7km/h 10% 0.00in /  0mm 489.0 W/m2
15:49 90.0 °F /  32.2 °C 26.1 °F /  -3.3 °C 29.73in /  1006.7hPa NNW 4.9mph /  7.9km/h 8.0mph /  12.9km/h 10% 0.00in /  0mm 475.0 W/m2
15:55 89.8 °F /  32.1 °C 25.9 °F /  -3.4 °C 29.73in /  1006.7hPa North 8.9mph /  14.3km/h 9.0mph /  14.5km/h 10% 0.00in /  0mm 457.0 W/m2
16:01 89.4 °F /  31.9 °C 25.7 °F /  -3.5 °C 29.73in /  1006.7hPa ENE 0.9mph /  1.4km/h 3.0mph /  4.8km/h 10% 0.00in /  0mm 434.0 W/m2
16:07 89.4 °F /  31.9 °C 25.7 °F /  -3.5 °C 29.73in /  1006.7hPa Calm   4.0mph /  6.4km/h 10% 0.00in /  0mm 411.0 W/m2
16:13 89.4 °F /  31.9 °C 25.7 °F /  -3.5 °C 29.73in /  1006.7hPa North 4.9mph /  7.9km/h 5.0mph /  8km/h 10% 0.00in /  0mm 397.0 W/m2
16:20 89.4 °F /  31.9 °C 25.7 °F /  -3.5 °C 29.73in /  1006.7hPa Calm   6.0mph /  9.7km/h 10% 0.00in /  0mm 371.0 W/m2
16:26 89.6 °F /  32 °C 25.9 °F /  -3.4 °C 29.73in /  1006.7hPa NW 6.9mph /  11.1km/h 7.0mph /  11.3km/h 10% 0.00in /  0mm 357.0 W/m2
16:32 89.8 °F /  32.1 °C 25.9 °F /  -3.4 °C 29.73in /  1006.7hPa WNW 2.0mph /  3.2km/h 5.0mph /  8km/h 10% 0.00in /  0mm 334.0 W/m2
16:38 89.8 °F /  32.1 °C 25.9 °F /  -3.4 °C 29.73in /  1006.7hPa NNE 0.9mph /  1.4km/h 9.0mph /  14.5km/h 10% 0.00in /  0mm 311.0 W/m2
16:44 89.4 °F /  31.9 °C 25.7 °F /  -3.5 °C 29.73in /  1006.7hPa West 0.9mph /  1.4km/h 6.0mph /  9.7km/h 10% 0.00in /  0mm 292.0 W/m2
16:50 89.2 °F /  31.8 °C 25.5 °F /  -3.6 °C 29.73in /  1006.7hPa West 2.9mph /  4.7km/h 6.0mph /  9.7km/h 10% 0.00in /  0mm 269.0 W/m2
16:56 89.1 °F /  31.7 °C 27.7 °F /  -2.4 °C 29.73in /  1006.7hPa West 2.0mph /  3.2km/h 3.0mph /  4.8km/h 11% 0.00in /  0mm 253.0 W/m2
17:03 88.9 °F /  31.6 °C 25.3 °F /  -3.7 °C 29.73in /  1006.7hPa NW 2.0mph /  3.2km/h 8.0mph /  12.9km/h 10% 0.00in /  0mm 236.0 W/m2
17:09 88.9 °F /  31.6 °C 25.3 °F /  -3.7 °C 29.73in /  1006.7hPa Calm   3.0mph /  4.8km/h 10% 0.00in /  0mm 211.0 W/m2
17:15 88.3 °F /  31.3 °C 27.1 °F /  -2.7 °C 29.73in /  1006.7hPa NNE 2.9mph /  4.7km/h 9.0mph /  14.5km/h 11% 0.00in /  0mm 197.0 W/m2
17:21 88.3 °F /  31.3 °C 27.1 °F /  -2.7 °C 29.73in /  1006.7hPa Calm   4.0mph /  6.4km/h 11% 0.00in /  0mm 178.0 W/m2
17:27 88.0 °F /  31.1 °C 27.0 °F /  -2.8 °C 29.73in /  1006.7hPa WNW 2.0mph /  3.2km/h 11.0mph /  17.7km/h 11% 0.00in /  0mm 158.0 W/m2
17:33 87.3 °F /  30.7 °C 26.4 °F /  -3.1 °C 29.73in /  1006.7hPa NNW 2.9mph /  4.7km/h 8.0mph /  12.9km/h 11% 0.00in /  0mm 137.0 W/m2
17:39 86.7 °F /  30.4 °C 25.9 °F /  -3.4 °C 29.73in /  1006.7hPa North 0.9mph /  1.4km/h 8.0mph /  12.9km/h 11% 0.00in /  0mm 120.0 W/m2
17:45 86.4 °F /  30.2 °C 25.7 °F /  -3.5 °C 29.73in /  1006.7hPa NW 2.0mph /  3.2km/h 9.0mph /  14.5km/h 11% 0.00in /  0mm 100.0 W/m2
17:52 86.2 °F /  30.1 °C 25.5 °F /  -3.6 °C 29.73in /  1006.7hPa Calm   4.0mph /  6.4km/h 11% 0.00in /  0mm 83.0 W/m2
17:58 85.8 °F /  29.9 °C 25.2 °F /  -3.8 °C 29.74in /  1007hPa West 2.0mph /  3.2km/h 6.0mph /  9.7km/h 11% 0.00in /  0mm 67.0 W/m2
18:04 85.5 °F /  29.7 °C 27.1 °F /  -2.7 °C 29.74in /  1007hPa NNE 0.9mph /  1.4km/h 3.0mph /  4.8km/h 12% 0.00in /  0mm 42.0 W/m2
18:10 85.1 °F /  29.5 °C 26.8 °F /  -2.9 °C 29.74in /  1007hPa NNE 2.9mph /  4.7km/h 6.0mph /  9.7km/h 12% 0.00in /  0mm 32.0 W/m2
18:16 84.6 °F /  29.2 °C 26.4 °F /  -3.1 °C 29.74in /  1007hPa North 4.9mph /  7.9km/h 7.0mph /  11.3km/h 12% 0.00in /  0mm 25.0 W/m2
18:22 84.2 °F /  29 °C 26.1 °F /  -3.3 °C 29.74in /  1007hPa NW 2.0mph /  3.2km/h 3.0mph /  4.8km/h 12% 0.00in /  0mm 19.0 W/m2
18:28 83.7 °F /  28.7 °C 25.7 °F /  -3.5 °C 29.75in /  1007.3hPa Calm   6.0mph /  9.7km/h 12% 0.00in /  0mm 14.0 W/m2
18:35 83.3 °F /  28.5 °C 27.3 °F /  -2.6 °C 29.75in /  1007.3hPa NNW 0.9mph /  1.4km/h 1.0mph /  1.6km/h 13% 0.00in /  0mm 9.0 W/m2
18:41 82.8 °F /  28.2 °C 27.0 °F /  -2.8 °C 29.75in /  1007.3hPa NNE 0.9mph /  1.4km/h 3.0mph /  4.8km/h 13% 0.00in /  0mm 5.0 W/m2
18:47 82.2 °F /  27.9 °C 26.4 °F /  -3.1 °C 29.75in /  1007.3hPa North 2.0mph /  3.2km/h 3.0mph /  4.8km/h 13% 0.00in /  0mm 0.0 W/m2
18:53 81.9 °F /  27.7 °C 26.2 °F /  -3.2 °C 29.75in /  1007.3hPa Calm   1.0mph /  1.6km/h 13% 0.00in /  0mm 0.0 W/m2
18:59 81.3 °F /  27.4 °C 27.5 °F /  -2.5 °C 29.75in /  1007.3hPa Calm     14% 0.00in /  0mm 0.0 W/m2
19:05 80.8 °F /  27.1 °C 27.1 °F /  -2.7 °C 29.76in /  1007.7hPa Calm     14% 0.00in /  0mm 0.0 W/m2
19:12 80.2 °F /  26.8 °C 26.8 °F /  -2.9 °C 29.76in /  1007.7hPa Calm     14% 0.00in /  0mm 0.0 W/m2
19:18 79.5 °F /  26.4 °C 27.9 °F /  -2.3 °C 29.76in /  1007.7hPa Calm   1.0mph /  1.6km/h 15% 0.00in /  0mm 0.0 W/m2
19:24 78.8 °F /  26 °C 27.3 °F /  -2.6 °C 29.76in /  1007.7hPa North 0.9mph /  1.4km/h 2.0mph /  3.2km/h 15% 0.00in /  0mm 0.0 W/m2
19:30 78.1 °F /  25.6 °C 26.6 °F /  -3 °C 29.76in /  1007.7hPa NNE 0.9mph /  1.4km/h 1.0mph /  1.6km/h 15% 0.00in /  0mm 0.0 W/m2
19:36 77.7 °F /  25.4 °C 26.4 °F /  -3.1 °C 29.76in /  1007.7hPa ENE 2.0mph /  3.2km/h 3.0mph /  4.8km/h 15% 0.00in /  0mm 0.0 W/m2
19:42 77.5 °F /  25.3 °C 26.2 °F /  -3.2 °C 29.76in /  1007.7hPa Calm   2.0mph /  3.2km/h 15% 0.00in /  0mm 0.0 W/m2
19:48 77.2 °F /  25.1 °C 25.9 °F /  -3.4 °C 29.77in /  1008hPa Calm   1.0mph /  1.6km/h 15% 0.00in /  0mm 0.0 W/m2
19:54 76.5 °F /  24.7 °C 25.3 °F /  -3.7 °C 29.77in /  1008hPa Calm   1.0mph /  1.6km/h 15% 0.00in /  0mm 0.0 W/m2
20:01 75.7 °F /  24.3 °C 26.4 °F /  -3.1 °C 29.77in /  1008hPa Calm   1.0mph /  1.6km/h 16% 0.00in /  0mm 0.0 W/m2
20:07 75.2 °F /  24 °C 25.9 °F /  -3.4 °C 29.77in /  1008hPa Calm   1.0mph /  1.6km/h 16% 0.00in /  0mm 0.0 W/m2
20:13 74.7 °F /  23.7 °C 27.0 °F /  -2.8 °C 29.78in /  1008.4hPa Calm     17% 0.00in /  0mm 0.0 W/m2
20:19 74.1 °F /  23.4 °C 26.6 °F /  -3 °C 29.78in /  1008.4hPa Calm   1.0mph /  1.6km/h 17% 0.00in /  0mm 0.0 W/m2
20:25 73.8 °F /  23.2 °C 26.2 °F /  -3.2 °C 29.78in /  1008.4hPa Calm   1.0mph /  1.6km/h 17% 0.00in /  0mm 0.0 W/m2
20:31 73.2 °F /  22.9 °C 25.7 °F /  -3.5 °C 29.78in /  1008.4hPa ENE 0.9mph /  1.4km/h 1.0mph /  1.6km/h 17% 0.00in /  0mm 0.0 W/m2
20:37 73.0 °F /  22.8 °C 27.0 °F /  -2.8 °C 29.78in /  1008.4hPa ENE 0.9mph /  1.4km/h 2.0mph /  3.2km/h 18% 0.00in /  0mm 0.0 W/m2
20:44 72.9 °F /  22.7 °C 27.0 °F /  -2.8 °C 29.78in /  1008.4hPa Calm   1.0mph /  1.6km/h 18% 0.00in /  0mm 0.0 W/m2
20:50 72.5 °F /  22.5 °C 26.6 °F /  -3 °C 29.78in /  1008.4hPa Calm   1.0mph /  1.6km/h 18% 0.00in /  0mm 0.0 W/m2
20:56 72.1 °F /  22.3 °C 26.2 °F /  -3.2 °C 29.78in /  1008.4hPa Calm     18% 0.00in /  0mm 0.0 W/m2
21:02 71.8 °F /  22.1 °C 27.3 °F /  -2.6 °C 29.79in /  1008.7hPa Calm     19% 0.00in /  0mm 0.0 W/m2
21:08 71.2 °F /  21.8 °C 26.8 °F /  -2.9 °C 29.79in /  1008.7hPa Calm     19% 0.00in /  0mm 0.0 W/m2
21:14 70.9 °F /  21.6 °C 27.9 °F /  -2.3 °C 29.79in /  1008.7hPa East 0.9mph /  1.4km/h 2.0mph /  3.2km/h 20% 0.00in /  0mm 0.0 W/m2
21:20 70.3 °F /  21.3 °C 26.1 °F /  -3.3 °C 29.79in /  1008.7hPa Calm   1.0mph /  1.6km/h 19% 0.00in /  0mm 0.0 W/m2
21:27 70.2 °F /  21.2 °C 27.1 °F /  -2.7 °C 29.79in /  1008.7hPa Calm   1.0mph /  1.6km/h 20% 0.00in /  0mm 0.0 W/m2
21:33 69.6 °F /  20.9 °C 26.8 °F /  -2.9 °C 29.80in /  1009hPa East 0.9mph /  1.4km/h 1.0mph /  1.6km/h 20% 0.00in /  0mm 0.0 W/m2
21:39 69.3 °F /  20.7 °C 26.4 °F /  -3.1 °C 29.80in /  1009hPa East 0.9mph /  1.4km/h 1.0mph /  1.6km/h 20% 0.00in /  0mm 0.0 W/m2
21:45 68.9 °F /  20.5 °C 27.3 °F /  -2.6 °C 29.80in /  1009hPa Calm   1.0mph /  1.6km/h 21% 0.00in /  0mm 0.0 W/m2
21:51 68.5 °F /  20.3 °C 27.1 °F /  -2.7 °C 29.80in /  1009hPa Calm     21% 0.00in /  0mm 0.0 W/m2
21:57 68.2 °F /  20.1 °C 26.8 °F /  -2.9 °C 29.80in /  1009hPa Calm     21% 0.00in /  0mm 0.0 W/m2
22:03 67.8 °F /  19.9 °C 27.5 °F /  -2.5 °C 29.80in /  1009hPa Calm     22% 0.00in /  0mm 0.0 W/m2
22:09 67.6 °F /  19.8 °C 27.5 °F /  -2.5 °C 29.80in /  1009hPa Calm     22% 0.00in /  0mm 0.0 W/m2
22:16 67.3 °F /  19.6 °C 27.1 °F /  -2.7 °C 29.80in /  1009hPa Calm     22% 0.00in /  0mm 0.0 W/m2
22:22 66.9 °F /  19.4 °C 27.9 °F /  -2.3 °C 29.80in /  1009hPa Calm     23% 0.00in /  0mm 0.0 W/m2
22:28 66.6 °F /  19.2 °C 27.7 °F /  -2.4 °C 29.81in /  1009.4hPa Calm   1.0mph /  1.6km/h 23% 0.00in /  0mm 0.0 W/m2
22:34 66.4 °F /  19.1 °C 27.5 °F /  -2.5 °C 29.81in /  1009.4hPa Calm   2.0mph /  3.2km/h 23% 0.00in /  0mm 0.0 W/m2
22:40 66.2 °F /  19 °C 27.3 °F /  -2.6 °C 29.81in /  1009.4hPa Calm   5.0mph /  8km/h 23% 0.00in /  0mm 0.0 W/m2
22:46 66.4 °F /  19.1 °C 27.5 °F /  -2.5 °C 29.80in /  1009hPa Calm   1.0mph /  1.6km/h 23% 0.00in /  0mm 0.0 W/m2
22:52 66.4 °F /  19.1 °C 27.5 °F /  -2.5 °C 29.80in /  1009hPa Calm   1.0mph /  1.6km/h 23% 0.00in /  0mm 0.0 W/m2
22:58 66.4 °F /  19.1 °C 27.5 °F /  -2.5 °C 29.80in /  1009hPa Calm   2.0mph /  3.2km/h 23% 0.00in /  0mm 0.0 W/m2
23:05 66.4 °F /  19.1 °C 27.5 °F /  -2.5 °C 29.80in /  1009hPa ESE 0.9mph /  1.4km/h 1.0mph /  1.6km/h 23% 0.00in /  0mm 0.0 W/m2
23:11 66.6 °F /  19.2 °C 27.7 °F /  -2.4 °C 29.80in /  1009hPa Calm     23% 0.00in /  0mm 0.0 W/m2
23:17 66.4 °F /  19.1 °C 27.5 °F /  -2.5 °C 29.80in /  1009hPa Calm   1.0mph /  1.6km/h 23% 0.00in /  0mm 0.0 W/m2
23:23 66.4 °F /  19.1 °C 27.5 °F /  -2.5 °C 29.80in /  1009hPa Calm     23% 0.00in /  0mm 0.0 W/m2
23:29 66.0 °F /  18.9 °C 27.1 °F /  -2.7 °C 29.80in /  1009hPa Calm   2.0mph /  3.2km/h 23% 0.00in /  0mm 0.0 W/m2
23:35 65.8 °F /  18.8 °C 27.0 °F /  -2.8 °C 29.80in /  1009hPa Calm   1.0mph /  1.6km/h 23% 0.00in /  0mm 0.0 W/m2
23:41 65.7 °F /  18.7 °C 26.8 °F /  -2.9 °C 29.80in /  1009hPa Calm   1.0mph /  1.6km/h 23% 0.00in /  0mm 0.0 W/m2
23:48 65.1 °F /  18.4 °C 26.4 °F /  -3.1 °C 29.80in /  1009hPa Calm     23% 0.00in /  0mm 0.0 W/m2
23:54 64.8 °F /  18.2 °C 27.1 °F /  -2.7 °C 29.80in /  1009hPa Calm     24% 0.00in /  0mm 0.0 W/m2
Olympia, Windhoek, Namibia
Compliments of Weather Underground - 3 mb